WZZ29E LIME-LBSF
Flight info
| Callsign | WZZ29E |
|---|---|
| Flight time | 1h 39m |
| Altitude | 19000 |
| Route | OSKOR L615 NOBMI/N0432F350 DCT LAPAB DCT BABAG DCT RUGOG DCT RUDIK DCT OKSIG DCT YULHU DCT VEBAR DCT NISVA |
| Aircraft | A21N/M-SDE1E2E3FGIJ1J4RWXY/LB1 |
Departure
| Time | 2026-05-04 18:09 |
|---|---|
| Airport | Il Caravaggio International Airport (LIME) |
Arrival
| Time | 2026-05-04 19:48 |
|---|---|
| Airport | Sofia Airport (LBSF) |
| Time | Latitude | Longitude | Altitude | Speed | Heading |
|---|---|---|---|---|---|
| 2026-05-04 17:54 | 45.66636 | 9.70121 | 789 ft | 0 kts | 195° |
| 2026-05-04 18:02 | 45.66643 | 9.70124 | 789 ft | 1 kts | 195° |
| 2026-05-04 18:02 | 45.66658 | 9.70130 | 790 ft | 2 kts | 195° |
| 2026-05-04 18:02 | 45.66679 | 9.70138 | 790 ft | 3 kts | 195° |
| 2026-05-04 18:02 | 45.66705 | 9.70148 | 790 ft | 4 kts | 195° |
| 2026-05-04 18:03 | 45.66719 | 9.70150 | 791 ft | 0 kts | 114° |
| 2026-05-04 18:03 | 45.66719 | 9.70151 | 791 ft | 0 kts | 114° |
| 2026-05-04 18:03 | 45.66714 | 9.70168 | 791 ft | 2 kts | 110° |
| 2026-05-04 18:04 | 45.66703 | 9.70220 | 791 ft | 9 kts | 105° |
| 2026-05-04 18:04 | 45.66685 | 9.70319 | 791 ft | 10 kts | 105° |
| 2026-05-04 18:04 | 45.66643 | 9.70541 | 790 ft | 12 kts | 105° |
| 2026-05-04 18:05 | 45.66621 | 9.70664 | 790 ft | 13 kts | 104° |
| 2026-05-04 18:05 | 45.66596 | 9.70797 | 789 ft | 14 kts | 105° |
| 2026-05-04 18:05 | 45.66570 | 9.70939 | 788 ft | 15 kts | 105° |
| 2026-05-04 18:05 | 45.66539 | 9.71094 | 785 ft | 16 kts | 112° |
| 2026-05-04 18:06 | 45.66462 | 9.71436 | 780 ft | 19 kts | 105° |
| 2026-05-04 18:06 | 45.66443 | 9.71631 | 776 ft | 20 kts | 80° |
| 2026-05-04 18:06 | 45.66475 | 9.71807 | 773 ft | 14 kts | 81° |
| 2026-05-04 18:07 | 45.66456 | 9.71956 | 771 ft | 15 kts | 105° |
| 2026-05-04 18:07 | 45.66427 | 9.72114 | 769 ft | 17 kts | 104° |
| 2026-05-04 18:07 | 45.66396 | 9.72282 | 768 ft | 17 kts | 105° |
| 2026-05-04 18:07 | 45.66377 | 9.72458 | 766 ft | 17 kts | 82° |
| 2026-05-04 18:08 | 45.66411 | 9.72583 | 766 ft | 8 kts | 21° |
| 2026-05-04 18:08 | 45.66442 | 9.72542 | 766 ft | 7 kts | 282° |
| 2026-05-04 18:08 | 45.66508 | 9.72183 | 769 ft | 73 kts | 285° |
| 2026-05-04 18:08 | 45.66694 | 9.71167 | 787 ft | 133 kts | 285° |
| 2026-05-04 18:09 | 45.67275 | 9.67982 | 1396 ft | 179 kts | 282° |
| 2026-05-04 18:09 | 45.66217 | 9.65214 | 2632 ft | 184 kts | 195° |
| 2026-05-04 18:10 | 45.64911 | 9.65332 | 2997 ft | 200 kts | 158° |
| 2026-05-04 18:10 | 45.63853 | 9.66672 | 3383 ft | 214 kts | 121° |
| 2026-05-04 18:10 | 45.63515 | 9.68811 | 3697 ft | 235 kts | 89° |
| 2026-05-04 18:10 | 45.63592 | 9.71247 | 4093 ft | 253 kts | 88° |
| 2026-05-04 18:11 | 45.63661 | 9.73830 | 4562 ft | 269 kts | 89° |
| 2026-05-04 18:11 | 45.63723 | 9.76509 | 5257 ft | 274 kts | 89° |
| 2026-05-04 18:11 | 45.63781 | 9.79226 | 5785 ft | 276 kts | 89° |
| 2026-05-04 18:11 | 45.63839 | 9.82005 | 6341 ft | 282 kts | 89° |
| 2026-05-04 18:12 | 45.63893 | 9.84740 | 7174 ft | 281 kts | 89° |
| 2026-05-04 18:12 | 45.63947 | 9.87550 | 7958 ft | 282 kts | 89° |
| 2026-05-04 18:12 | 45.64000 | 9.90342 | 8683 ft | 285 kts | 90° |
| 2026-05-04 18:12 | 45.64051 | 9.93158 | 9392 ft | 287 kts | 90° |
| 2026-05-04 18:13 | 45.64103 | 9.96033 | 10087 ft | 289 kts | 90° |
| 2026-05-04 18:13 | 45.64155 | 9.98895 | 10618 ft | 297 kts | 90° |
| 2026-05-04 18:13 | 45.64263 | 10.05155 | 11235 ft | 328 kts | 90° |
| 2026-05-04 18:14 | 45.64320 | 10.08432 | 11758 ft | 335 kts | 90° |
| 2026-05-04 18:14 | 45.64378 | 10.11765 | 12362 ft | 338 kts | 90° |
| 2026-05-04 18:14 | 45.64434 | 10.15123 | 12956 ft | 342 kts | 91° |
| 2026-05-04 18:15 | 45.64544 | 10.21989 | 14095 ft | 350 kts | 91° |
| 2026-05-04 18:15 | 45.64647 | 10.28959 | 15227 ft | 355 kts | 91° |
| 2026-05-04 18:15 | 45.64698 | 10.32500 | 15770 ft | 358 kts | 90° |
| 2026-05-04 18:16 | 45.64749 | 10.36063 | 16285 ft | 362 kts | 90° |
| 2026-05-04 18:16 | 45.64801 | 10.39656 | 16784 ft | 365 kts | 90° |
| 2026-05-04 18:16 | 45.64846 | 10.43305 | 17306 ft | 367 kts | 90° |
| 2026-05-04 18:17 | 45.64778 | 10.50623 | 18288 ft | 373 kts | 94° |
| 2026-05-04 18:17 | 45.64555 | 10.54343 | 18778 ft | 375 kts | 97° |
| 2026-05-04 18:17 | 45.63994 | 10.61774 | 19714 ft | 380 kts | 97° |
| 2026-05-04 18:18 | 45.63705 | 10.65530 | 20176 ft | 383 kts | 98° |
| 2026-05-04 18:18 | 45.63418 | 10.69265 | 20628 ft | 385 kts | 97° |
| 2026-05-04 18:18 | 45.63127 | 10.73053 | 21075 ft | 387 kts | 97° |
| 2026-05-04 18:18 | 45.62850 | 10.76655 | 21476 ft | 390 kts | 97° |
| 2026-05-04 18:19 | 45.62253 | 10.84386 | 22320 ft | 395 kts | 97° |
| 2026-05-04 18:19 | 45.61952 | 10.88265 | 22739 ft | 397 kts | 97° |
| 2026-05-04 18:19 | 45.61643 | 10.92222 | 23150 ft | 399 kts | 97° |
| 2026-05-04 18:20 | 45.61337 | 10.96137 | 23547 ft | 401 kts | 97° |
| 2026-05-04 18:20 | 45.61024 | 11.00124 | 23943 ft | 403 kts | 97° |
| 2026-05-04 18:20 | 45.60710 | 11.04098 | 24317 ft | 406 kts | 97° |
| 2026-05-04 18:20 | 45.60396 | 11.08065 | 24688 ft | 408 kts | 97° |
| 2026-05-04 18:21 | 45.60075 | 11.12094 | 25030 ft | 411 kts | 97° |
| 2026-05-04 18:21 | 45.59751 | 11.16141 | 25376 ft | 413 kts | 97° |
| 2026-05-04 18:21 | 45.59421 | 11.20233 | 25723 ft | 415 kts | 97° |
| 2026-05-04 18:21 | 45.59090 | 11.24340 | 26048 ft | 417 kts | 97° |
| 2026-05-04 18:22 | 45.58757 | 11.28456 | 26366 ft | 420 kts | 97° |
| 2026-05-04 18:22 | 45.58418 | 11.32598 | 26679 ft | 422 kts | 98° |
| 2026-05-04 18:22 | 45.58073 | 11.36773 | 26986 ft | 424 kts | 97° |
| 2026-05-04 18:22 | 45.57729 | 11.40926 | 27296 ft | 426 kts | 98° |
| 2026-05-04 18:23 | 45.57377 | 11.45154 | 27608 ft | 428 kts | 98° |
| 2026-05-04 18:23 | 45.57029 | 11.49325 | 27891 ft | 430 kts | 97° |
| 2026-05-04 18:23 | 45.56675 | 11.53565 | 28198 ft | 432 kts | 97° |
| 2026-05-04 18:23 | 45.56317 | 11.57852 | 28488 ft | 434 kts | 97° |
| 2026-05-04 18:24 | 45.55957 | 11.62122 | 28768 ft | 437 kts | 97° |
| 2026-05-04 18:24 | 45.55592 | 11.66435 | 29058 ft | 438 kts | 98° |
| 2026-05-04 18:24 | 45.55248 | 11.70473 | 29330 ft | 440 kts | 98° |
| 2026-05-04 18:24 | 45.54898 | 11.74578 | 29596 ft | 442 kts | 98° |
| 2026-05-04 18:25 | 45.54521 | 11.78984 | 29871 ft | 444 kts | 98° |
| 2026-05-04 18:25 | 45.54144 | 11.83354 | 30141 ft | 446 kts | 98° |
| 2026-05-04 18:25 | 45.53771 | 11.87669 | 30397 ft | 447 kts | 98° |
| 2026-05-04 18:25 | 45.53385 | 11.92098 | 30644 ft | 449 kts | 98° |
| 2026-05-04 18:26 | 45.52996 | 11.96501 | 30877 ft | 451 kts | 99° |
| 2026-05-04 18:26 | 45.52502 | 12.00969 | 31111 ft | 453 kts | 101° |
| 2026-05-04 18:26 | 45.51985 | 12.05349 | 31355 ft | 454 kts | 101° |
| 2026-05-04 18:26 | 45.51452 | 12.09818 | 31659 ft | 454 kts | 101° |
| 2026-05-04 18:27 | 45.50927 | 12.14200 | 31994 ft | 453 kts | 101° |
| 2026-05-04 18:27 | 45.50398 | 12.18595 | 32337 ft | 452 kts | 101° |
| 2026-05-04 18:27 | 45.49867 | 12.23002 | 32665 ft | 451 kts | 101° |
| 2026-05-04 18:27 | 45.49330 | 12.27450 | 32986 ft | 451 kts | 101° |
| 2026-05-04 18:28 | 45.48799 | 12.31839 | 33283 ft | 450 kts | 101° |
| 2026-05-04 18:28 | 45.48266 | 12.36226 | 33589 ft | 450 kts | 101° |
| 2026-05-04 18:28 | 45.47729 | 12.40627 | 33899 ft | 449 kts | 101° |
| 2026-05-04 18:28 | 45.47199 | 12.44963 | 34196 ft | 449 kts | 101° |
| 2026-05-04 18:29 | 45.46666 | 12.49303 | 34484 ft | 448 kts | 101° |
| 2026-05-04 18:29 | 45.46130 | 12.53669 | 34747 ft | 448 kts | 101° |
| 2026-05-04 18:29 | 45.45593 | 12.58010 | 34980 ft | 448 kts | 101° |
| 2026-05-04 18:29 | 45.45050 | 12.62396 | 35201 ft | 448 kts | 101° |
| 2026-05-04 18:30 | 45.43963 | 12.71120 | 35613 ft | 448 kts | 102° |
| 2026-05-04 18:30 | 45.43415 | 12.75498 | 35817 ft | 448 kts | 101° |
| 2026-05-04 18:30 | 45.42874 | 12.79814 | 35997 ft | 448 kts | 101° |
| 2026-05-04 18:31 | 45.42323 | 12.84189 | 36173 ft | 449 kts | 101° |
| 2026-05-04 18:31 | 45.41776 | 12.88520 | 36344 ft | 449 kts | 101° |
| 2026-05-04 18:31 | 45.41223 | 12.92897 | 36515 ft | 449 kts | 101° |
| 2026-05-04 18:31 | 45.40664 | 12.97288 | 36708 ft | 449 kts | 101° |
| 2026-05-04 18:32 | 45.40109 | 13.01633 | 36917 ft | 449 kts | 101° |
| 2026-05-04 18:32 | 45.39555 | 13.05955 | 37033 ft | 451 kts | 101° |
| 2026-05-04 18:32 | 45.39013 | 13.10363 | 37035 ft | 452 kts | 99° |
| 2026-05-04 18:33 | 45.38398 | 13.19249 | 37044 ft | 452 kts | 94° |
| 2026-05-04 18:33 | 45.38045 | 13.28089 | 37046 ft | 451 kts | 93° |
| 2026-05-04 18:34 | 45.37685 | 13.36967 | 37049 ft | 451 kts | 93° |
| 2026-05-04 18:34 | 45.37309 | 13.45865 | 37060 ft | 451 kts | 93° |
| 2026-05-04 18:35 | 45.36925 | 13.54733 | 37056 ft | 451 kts | 93° |
| 2026-05-04 18:35 | 45.36530 | 13.63637 | 37071 ft | 450 kts | 93° |
| 2026-05-04 18:36 | 45.36143 | 13.72255 | 37079 ft | 450 kts | 94° |
| 2026-05-04 18:36 | 45.35737 | 13.81101 | 37083 ft | 450 kts | 94° |
| 2026-05-04 18:37 | 45.35326 | 13.89928 | 37085 ft | 450 kts | 94° |
| 2026-05-04 18:37 | 45.34906 | 13.98783 | 37089 ft | 449 kts | 94° |
| 2026-05-04 18:38 | 45.34483 | 14.07574 | 37090 ft | 449 kts | 94° |
| 2026-05-04 18:38 | 45.34051 | 14.16420 | 37087 ft | 448 kts | 94° |
| 2026-05-04 18:39 | 45.33611 | 14.25251 | 37083 ft | 449 kts | 94° |
| 2026-05-04 18:39 | 45.33167 | 14.34053 | 37088 ft | 449 kts | 94° |
| 2026-05-04 18:40 | 45.32715 | 14.42862 | 37086 ft | 449 kts | 94° |
| 2026-05-04 18:40 | 45.32258 | 14.51673 | 37089 ft | 450 kts | 94° |
| 2026-05-04 18:41 | 45.31789 | 14.60540 | 37097 ft | 449 kts | 94° |
| 2026-05-04 18:41 | 45.31318 | 14.69338 | 37100 ft | 449 kts | 94° |
| 2026-05-04 18:42 | 45.30834 | 14.78230 | 37103 ft | 449 kts | 94° |
| 2026-05-04 18:42 | 45.30347 | 14.87043 | 37103 ft | 449 kts | 94° |
| 2026-05-04 18:43 | 45.29855 | 14.95852 | 37096 ft | 449 kts | 94° |
| 2026-05-04 18:43 | 45.29355 | 15.04669 | 37089 ft | 449 kts | 94° |
| 2026-05-04 18:44 | 45.28846 | 15.13479 | 37083 ft | 449 kts | 94° |
| 2026-05-04 18:44 | 45.28313 | 15.22349 | 37067 ft | 449 kts | 95° |
| 2026-05-04 18:45 | 45.27284 | 15.31045 | 37055 ft | 449 kts | 102° |
| 2026-05-04 18:45 | 45.25502 | 15.39519 | 37051 ft | 450 kts | 110° |
| 2026-05-04 18:46 | 45.23214 | 15.47738 | 37043 ft | 449 kts | 111° |
| 2026-05-04 18:46 | 45.20900 | 15.55932 | 37043 ft | 449 kts | 111° |
| 2026-05-04 18:47 | 45.18582 | 15.64159 | 37034 ft | 449 kts | 111° |
| 2026-05-04 18:47 | 45.16248 | 15.72432 | 37039 ft | 450 kts | 111° |
| 2026-05-04 18:48 | 45.13920 | 15.80666 | 37032 ft | 450 kts | 111° |
| 2026-05-04 18:48 | 45.11577 | 15.88922 | 37027 ft | 450 kts | 111° |
| 2026-05-04 18:49 | 45.09650 | 15.95693 | 37034 ft | 450 kts | 111° |
| 2026-05-04 18:49 | 45.07306 | 16.03904 | 37033 ft | 450 kts | 111° |
| 2026-05-04 18:50 | 45.04954 | 16.12119 | 37038 ft | 449 kts | 111° |
| 2026-05-04 18:50 | 45.02954 | 16.19084 | 37039 ft | 449 kts | 111° |
| 2026-05-04 18:51 | 45.00607 | 16.27221 | 37027 ft | 449 kts | 111° |
| 2026-05-04 18:51 | 44.98518 | 16.35496 | 37033 ft | 448 kts | 106° |
| 2026-05-04 18:52 | 44.96628 | 16.43884 | 37033 ft | 447 kts | 106° |
| 2026-05-04 18:52 | 44.94745 | 16.52212 | 37036 ft | 447 kts | 106° |
| 2026-05-04 18:53 | 44.92840 | 16.60580 | 37036 ft | 447 kts | 106° |
| 2026-05-04 18:53 | 44.90934 | 16.68923 | 37045 ft | 456 kts | 107° |
| 2026-05-04 18:54 | 44.89003 | 16.77338 | 37036 ft | 464 kts | 107° |
| 2026-05-04 18:54 | 44.86993 | 16.86053 | 37052 ft | 470 kts | 107° |
| 2026-05-04 18:55 | 44.84992 | 16.94693 | 37052 ft | 473 kts | 107° |
| 2026-05-04 18:55 | 44.81235 | 17.07614 | 37061 ft | 475 kts | 114° |
| 2026-05-04 18:56 | 44.78397 | 17.15945 | 37050 ft | 476 kts | 114° |
| 2026-05-04 18:56 | 44.75531 | 17.24342 | 37047 ft | 476 kts | 114° |
| 2026-05-04 18:57 | 44.72682 | 17.32680 | 37048 ft | 475 kts | 114° |
| 2026-05-04 18:57 | 44.69818 | 17.41041 | 37059 ft | 476 kts | 114° |
| 2026-05-04 18:58 | 44.66927 | 17.49459 | 37060 ft | 476 kts | 114° |
| 2026-05-04 18:58 | 44.64056 | 17.57792 | 37063 ft | 476 kts | 114° |
| 2026-05-04 18:59 | 44.61201 | 17.66055 | 37063 ft | 476 kts | 114° |
| 2026-05-04 18:59 | 44.58295 | 17.74437 | 37073 ft | 476 kts | 114° |
| 2026-05-04 19:00 | 44.55407 | 17.82745 | 37075 ft | 475 kts | 114° |
| 2026-05-04 19:00 | 44.52501 | 17.91074 | 37065 ft | 475 kts | 114° |
| 2026-05-04 19:01 | 44.49611 | 17.99337 | 37070 ft | 476 kts | 114° |
| 2026-05-04 19:01 | 44.46701 | 18.07628 | 37065 ft | 475 kts | 114° |
| 2026-05-04 19:02 | 44.43775 | 18.15943 | 37077 ft | 475 kts | 114° |
| 2026-05-04 19:02 | 44.40839 | 18.24258 | 37088 ft | 476 kts | 114° |
| 2026-05-04 19:03 | 44.37904 | 18.32545 | 37098 ft | 476 kts | 114° |
| 2026-05-04 19:03 | 44.34971 | 18.40807 | 37099 ft | 475 kts | 114° |
| 2026-05-04 19:04 | 44.32033 | 18.49048 | 37102 ft | 475 kts | 114° |
| 2026-05-04 19:04 | 44.29336 | 18.57458 | 37105 ft | 473 kts | 108° |
| 2026-05-04 19:05 | 44.27122 | 18.66024 | 37109 ft | 473 kts | 107° |
| 2026-05-04 19:05 | 44.24912 | 18.74678 | 37100 ft | 472 kts | 107° |
| 2026-05-04 19:06 | 44.22720 | 18.83203 | 37105 ft | 472 kts | 107° |
| 2026-05-04 19:06 | 44.20496 | 18.91803 | 37103 ft | 472 kts | 107° |
| 2026-05-04 19:07 | 44.18260 | 19.00416 | 37106 ft | 472 kts | 107° |
| 2026-05-04 19:07 | 44.16020 | 19.09011 | 37111 ft | 472 kts | 107° |
| 2026-05-04 19:08 | 44.13771 | 19.17569 | 37113 ft | 472 kts | 108° |
| 2026-05-04 19:08 | 44.11280 | 19.25973 | 37119 ft | 472 kts | 110° |
| 2026-05-04 19:09 | 44.08731 | 19.34407 | 37113 ft | 472 kts | 110° |
| 2026-05-04 19:09 | 44.06174 | 19.42852 | 37114 ft | 473 kts | 109° |
| 2026-05-04 19:10 | 44.03628 | 19.51239 | 37097 ft | 472 kts | 109° |
| 2026-05-04 19:10 | 44.01072 | 19.59631 | 37100 ft | 472 kts | 109° |
| 2026-05-04 19:11 | 43.98524 | 19.67976 | 37108 ft | 473 kts | 110° |
| 2026-05-04 19:11 | 43.95989 | 19.76249 | 37117 ft | 472 kts | 110° |
| 2026-05-04 19:12 | 43.92128 | 19.88799 | 37120 ft | 472 kts | 110° |
| 2026-05-04 19:13 | 43.89564 | 19.97103 | 37112 ft | 472 kts | 110° |
| 2026-05-04 19:13 | 43.87007 | 20.05350 | 37110 ft | 472 kts | 110° |
| 2026-05-04 19:14 | 43.84453 | 20.13564 | 37107 ft | 472 kts | 110° |
| 2026-05-04 19:14 | 43.81847 | 20.21921 | 37111 ft | 472 kts | 110° |
| 2026-05-04 19:15 | 43.79251 | 20.30224 | 37108 ft | 472 kts | 110° |
| 2026-05-04 19:15 | 43.76639 | 20.38545 | 37108 ft | 471 kts | 110° |
| 2026-05-04 19:16 | 43.74029 | 20.46832 | 37105 ft | 471 kts | 110° |
| 2026-05-04 19:16 | 43.71412 | 20.55121 | 37104 ft | 471 kts | 110° |
| 2026-05-04 19:17 | 43.68787 | 20.63402 | 37109 ft | 471 kts | 109° |
| 2026-05-04 19:17 | 43.66193 | 20.71565 | 37116 ft | 471 kts | 110° |
| 2026-05-04 19:18 | 43.63546 | 20.79868 | 37118 ft | 471 kts | 110° |
| 2026-05-04 19:18 | 43.60907 | 20.88114 | 37117 ft | 471 kts | 110° |
| 2026-05-04 19:19 | 43.58260 | 20.96367 | 37116 ft | 471 kts | 110° |
| 2026-05-04 19:19 | 43.55593 | 21.04656 | 37115 ft | 471 kts | 110° |
| 2026-05-04 19:20 | 43.52937 | 21.12883 | 36863 ft | 471 kts | 110° |
| 2026-05-04 19:20 | 43.51604 | 21.17001 | 36673 ft | 471 kts | 110° |
| 2026-05-04 19:20 | 43.50277 | 21.21093 | 36514 ft | 471 kts | 110° |
| 2026-05-04 19:20 | 43.48934 | 21.25232 | 36370 ft | 471 kts | 110° |
| 2026-05-04 19:21 | 43.47595 | 21.29350 | 36267 ft | 471 kts | 110° |
| 2026-05-04 19:21 | 43.44923 | 21.37550 | 36098 ft | 470 kts | 110° |
| 2026-05-04 19:22 | 43.42240 | 21.45758 | 35915 ft | 468 kts | 110° |
| 2026-05-04 19:22 | 43.40904 | 21.49833 | 35568 ft | 464 kts | 110° |
| 2026-05-04 19:22 | 43.39582 | 21.53855 | 34903 ft | 466 kts | 109° |
| 2026-05-04 19:22 | 43.38231 | 21.57967 | 34066 ft | 469 kts | 109° |
| 2026-05-04 19:23 | 43.36898 | 21.62034 | 33240 ft | 471 kts | 110° |
| 2026-05-04 19:23 | 43.35614 | 21.65948 | 32534 ft | 469 kts | 111° |
| 2026-05-04 19:23 | 43.34360 | 21.69754 | 31859 ft | 468 kts | 111° |
| 2026-05-04 19:23 | 43.33086 | 21.73612 | 31183 ft | 466 kts | 112° |
| 2026-05-04 19:24 | 43.31785 | 21.77555 | 30482 ft | 463 kts | 112° |
| 2026-05-04 19:24 | 43.30453 | 21.81563 | 30053 ft | 461 kts | 112° |
| 2026-05-04 19:24 | 43.29122 | 21.85566 | 29656 ft | 462 kts | 113° |
| 2026-05-04 19:24 | 43.27790 | 21.89570 | 29130 ft | 459 kts | 113° |
| 2026-05-04 19:25 | 43.26467 | 21.93539 | 28428 ft | 462 kts | 113° |
| 2026-05-04 19:25 | 43.25127 | 21.97559 | 27907 ft | 466 kts | 114° |
| 2026-05-04 19:25 | 43.23772 | 22.01613 | 27437 ft | 468 kts | 114° |
| 2026-05-04 19:25 | 43.22431 | 22.05616 | 27000 ft | 469 kts | 114° |
| 2026-05-04 19:26 | 43.21068 | 22.09679 | 26562 ft | 470 kts | 114° |
| 2026-05-04 19:26 | 43.19699 | 22.13754 | 26090 ft | 471 kts | 114° |
| 2026-05-04 19:26 | 43.18326 | 22.17839 | 25599 ft | 472 kts | 114° |
| 2026-05-04 19:26 | 43.16950 | 22.21926 | 25111 ft | 473 kts | 114° |
| 2026-05-04 19:27 | 43.15579 | 22.25992 | 24606 ft | 474 kts | 114° |
| 2026-05-04 19:27 | 43.14193 | 22.30098 | 24072 ft | 476 kts | 114° |
| 2026-05-04 19:27 | 43.12794 | 22.34238 | 23520 ft | 478 kts | 114° |
| 2026-05-04 19:27 | 43.11398 | 22.38360 | 22998 ft | 475 kts | 114° |
| 2026-05-04 19:28 | 43.10025 | 22.42401 | 22482 ft | 471 kts | 114° |
| 2026-05-04 19:28 | 43.08633 | 22.46497 | 21943 ft | 468 kts | 113° |
| 2026-05-04 19:28 | 43.07290 | 22.50442 | 21404 ft | 458 kts | 113° |
| 2026-05-04 19:28 | 43.05945 | 22.54388 | 20859 ft | 449 kts | 113° |
| 2026-05-04 19:29 | 43.04639 | 22.58216 | 20344 ft | 439 kts | 112° |
| 2026-05-04 19:29 | 43.03365 | 22.61950 | 19834 ft | 430 kts | 112° |
| 2026-05-04 19:29 | 43.02154 | 22.65492 | 19347 ft | 422 kts | 112° |
| 2026-05-04 19:29 | 43.00955 | 22.68995 | 18877 ft | 414 kts | 112° |
| 2026-05-04 19:30 | 42.99793 | 22.72387 | 18410 ft | 407 kts | 112° |
| 2026-05-04 19:30 | 42.98676 | 22.75641 | 18127 ft | 396 kts | 112° |
| 2026-05-04 19:30 | 42.97530 | 22.78976 | 17909 ft | 383 kts | 112° |
| 2026-05-04 19:30 | 42.96604 | 22.82299 | 17681 ft | 367 kts | 101° |
| 2026-05-04 19:31 | 42.96135 | 22.85653 | 17494 ft | 354 kts | 96° |
| 2026-05-04 19:31 | 42.95760 | 22.88899 | 17300 ft | 343 kts | 96° |
| 2026-05-04 19:31 | 42.95403 | 22.92086 | 17098 ft | 332 kts | 96° |
| 2026-05-04 19:31 | 42.95060 | 22.95151 | 16911 ft | 322 kts | 95° |
| 2026-05-04 19:32 | 42.94722 | 22.98119 | 16728 ft | 312 kts | 96° |
| 2026-05-04 19:32 | 42.94390 | 23.00998 | 16551 ft | 302 kts | 96° |
| 2026-05-04 19:32 | 42.94064 | 23.03788 | 16373 ft | 293 kts | 95° |
| 2026-05-04 19:32 | 42.93745 | 23.06466 | 16201 ft | 283 kts | 95° |
| 2026-05-04 19:33 | 42.93426 | 23.09088 | 16031 ft | 274 kts | 95° |
| 2026-05-04 19:33 | 42.93108 | 23.11618 | 15855 ft | 266 kts | 95° |
| 2026-05-04 19:33 | 42.92796 | 23.14053 | 15590 ft | 261 kts | 96° |
| 2026-05-04 19:33 | 42.92482 | 23.16497 | 15162 ft | 263 kts | 95° |
| 2026-05-04 19:34 | 42.92162 | 23.18973 | 14700 ft | 266 kts | 95° |
| 2026-05-04 19:34 | 42.91841 | 23.21436 | 14346 ft | 264 kts | 95° |
| 2026-05-04 19:34 | 42.91519 | 23.23894 | 14012 ft | 261 kts | 95° |
| 2026-05-04 19:34 | 42.91195 | 23.26323 | 13670 ft | 260 kts | 95° |
| 2026-05-04 19:35 | 42.90867 | 23.28742 | 13325 ft | 258 kts | 96° |
| 2026-05-04 19:35 | 42.90549 | 23.31128 | 12969 ft | 256 kts | 95° |
| 2026-05-04 19:35 | 42.90234 | 23.33507 | 12622 ft | 255 kts | 95° |
| 2026-05-04 19:35 | 42.89923 | 23.35880 | 12263 ft | 254 kts | 95° |
| 2026-05-04 19:36 | 42.89616 | 23.38247 | 12110 ft | 253 kts | 95° |
| 2026-05-04 19:36 | 42.89336 | 23.40401 | 12107 ft | 255 kts | 95° |
| 2026-05-04 19:36 | 42.89024 | 23.42790 | 12114 ft | 255 kts | 95° |
| 2026-05-04 19:36 | 42.88715 | 23.45159 | 12112 ft | 255 kts | 95° |
| 2026-05-04 19:37 | 42.88404 | 23.47546 | 12107 ft | 255 kts | 95° |
| 2026-05-04 19:37 | 42.88089 | 23.49943 | 12119 ft | 255 kts | 95° |
| 2026-05-04 19:37 | 42.87774 | 23.52306 | 12126 ft | 255 kts | 95° |
| 2026-05-04 19:37 | 42.87459 | 23.54670 | 12113 ft | 255 kts | 95° |
| 2026-05-04 19:38 | 42.87142 | 23.57056 | 11840 ft | 256 kts | 95° |
| 2026-05-04 19:38 | 42.86822 | 23.59458 | 11456 ft | 255 kts | 95° |
| 2026-05-04 19:38 | 42.86505 | 23.61835 | 11087 ft | 255 kts | 95° |
| 2026-05-04 19:38 | 42.86192 | 23.64180 | 10715 ft | 254 kts | 95° |
| 2026-05-04 19:39 | 42.85885 | 23.66498 | 10362 ft | 253 kts | 96° |
| 2026-05-04 19:39 | 42.85593 | 23.68694 | 10017 ft | 253 kts | 96° |
| 2026-05-04 19:39 | 42.85284 | 23.71000 | 9647 ft | 253 kts | 96° |
| 2026-05-04 19:39 | 42.84975 | 23.73328 | 9276 ft | 252 kts | 96° |
| 2026-05-04 19:40 | 42.84665 | 23.75704 | 8906 ft | 252 kts | 96° |
| 2026-05-04 19:40 | 42.84362 | 23.78046 | 8541 ft | 251 kts | 96° |
| 2026-05-04 19:40 | 42.84058 | 23.80389 | 8169 ft | 251 kts | 96° |
| 2026-05-04 19:40 | 42.83718 | 23.82668 | 7962 ft | 246 kts | 104° |
| 2026-05-04 19:41 | 42.82746 | 23.84522 | 7942 ft | 242 kts | 140° |
| 2026-05-04 19:41 | 42.81118 | 23.85445 | 7965 ft | 260 kts | 169° |
| 2026-05-04 19:41 | 42.79313 | 23.85300 | 7976 ft | 266 kts | 191° |
| 2026-05-04 19:41 | 42.77493 | 23.84691 | 7895 ft | 267 kts | 193° |
| 2026-05-04 19:42 | 42.75723 | 23.84085 | 7675 ft | 263 kts | 192° |
| 2026-05-04 19:42 | 42.73927 | 23.83511 | 7345 ft | 262 kts | 191° |
| 2026-05-04 19:42 | 42.72134 | 23.83045 | 6933 ft | 265 kts | 188° |
| 2026-05-04 19:42 | 42.70307 | 23.82621 | 6474 ft | 269 kts | 189° |
| 2026-05-04 19:43 | 42.68564 | 23.81722 | 6100 ft | 268 kts | 217° |
| 2026-05-04 19:43 | 42.67394 | 23.79847 | 5991 ft | 259 kts | 249° |
| 2026-05-04 19:43 | 42.67064 | 23.77469 | 5990 ft | 254 kts | 278° |
| 2026-05-04 19:43 | 42.67349 | 23.75153 | 5978 ft | 247 kts | 285° |
| 2026-05-04 19:44 | 42.67652 | 23.72889 | 5806 ft | 240 kts | 283° |
| 2026-05-04 19:44 | 42.67895 | 23.70648 | 5497 ft | 239 kts | 281° |
| 2026-05-04 19:44 | 42.68076 | 23.68392 | 5185 ft | 239 kts | 278° |
| 2026-05-04 19:44 | 42.68216 | 23.66178 | 4875 ft | 238 kts | 277° |
| 2026-05-04 19:45 | 42.68343 | 23.63919 | 4563 ft | 236 kts | 277° |
| 2026-05-04 19:45 | 42.68466 | 23.61709 | 4255 ft | 235 kts | 277° |
| 2026-05-04 19:45 | 42.68589 | 23.59537 | 3945 ft | 227 kts | 277° |
| 2026-05-04 19:45 | 42.68710 | 23.57440 | 3642 ft | 219 kts | 277° |
| 2026-05-04 19:46 | 42.68830 | 23.55398 | 3366 ft | 218 kts | 277° |
| 2026-05-04 19:46 | 42.68950 | 23.53365 | 3149 ft | 208 kts | 277° |
| 2026-05-04 19:46 | 42.69059 | 23.51491 | 2862 ft | 194 kts | 277° |
| 2026-05-04 19:46 | 42.69162 | 23.49750 | 2617 ft | 177 kts | 277° |
| 2026-05-04 19:47 | 42.69258 | 23.48143 | 2366 ft | 165 kts | 277° |
| 2026-05-04 19:47 | 42.69348 | 23.46648 | 2145 ft | 150 kts | 276° |
| 2026-05-04 19:47 | 42.69431 | 23.45246 | 1974 ft | 146 kts | 277° |
| 2026-05-04 19:47 | 42.69517 | 23.43871 | 1797 ft | 147 kts | 277° |
| 2026-05-04 19:48 | 42.69597 | 23.42566 | 1760 ft | 125 kts | 275° |
| 2026-05-04 19:48 | 42.69662 | 23.41526 | 1759 ft | 97 kts | 275° |
| 2026-05-04 19:48 | 42.69707 | 23.40710 | 1759 ft | 76 kts | 276° |
| 2026-05-04 19:48 | 42.69745 | 23.40077 | 1759 ft | 49 kts | 274° |
| 2026-05-04 19:49 | 42.69765 | 23.39736 | 1759 ft | 24 kts | 276° |
| 2026-05-04 19:49 | 42.69750 | 23.39619 | 1759 ft | 9 kts | 215° |
| 2026-05-04 19:49 | 42.69688 | 23.39600 | 1759 ft | 9 kts | 188° |
| 2026-05-04 19:49 | 42.69621 | 23.39589 | 1760 ft | 10 kts | 185° |
| 2026-05-04 19:50 | 42.69548 | 23.39582 | 1760 ft | 10 kts | 185° |
| 2026-05-04 19:50 | 42.69470 | 23.39574 | 1760 ft | 11 kts | 186° |
| 2026-05-04 19:50 | 42.69389 | 23.39564 | 1760 ft | 12 kts | 185° |
| 2026-05-04 19:50 | 42.69320 | 23.39611 | 1760 ft | 11 kts | 116° |
| 2026-05-04 19:51 | 42.69295 | 23.39719 | 1760 ft | 12 kts | 107° |
| 2026-05-04 19:51 | 42.69270 | 23.39832 | 1760 ft | 12 kts | 107° |
| 2026-05-04 19:51 | 42.69243 | 23.39948 | 1760 ft | 12 kts | 111° |
| 2026-05-04 19:51 | 42.69207 | 23.40058 | 1760 ft | 10 kts | 114° |
| 2026-05-04 19:52 | 42.69186 | 23.40107 | 1760 ft | 3 kts | 151° |
| 2026-05-04 19:52 | 42.69163 | 23.40105 | 1760 ft | 3 kts | 197° |
| 2026-05-04 19:52 | 42.69133 | 23.40093 | 1760 ft | 4 kts | 197° |
| 2026-05-04 19:52 | 42.69126 | 23.40090 | 1760 ft | 0 kts | 197° |